»·PEaware :: N884WL KGEG-KBFI

N884WL :: KGEG-KBFI

FLIGHT INFORMATION

Flight Status: Arrived
Operator: Privately registered:
United States
More flights under this callsign
Pilot: Joe C. (19058)
Aircraft: SOCATA TBM-900
(TBM9)
More flights by this aircraft type
Origin: KGEG Spokane Intl
United States
Destination: KBFI Boeing Field/King Co Intl
United States
More flights between these airports :: More routes between these airports
Route: GEG3 TEMPL GLASR1
File this flight plan on PilotEdge
Remarks:
Altitude:
(Current/Filed)
30,000ft
Speed:
(Current/Filed)
300kts
Departed: 23-Oct-18 04:45 PM
Arrived: 23-Oct-18 05:44 PM
Distance/Time
Traveled:
193nm/0:58
Distance/Time
To Go:
Arrived

Flight Plot

Page will automatically refresh every two minutes.

Flight plan parsing failed; only flown route is shown


Map Options




Map Legend


Flown Route
Filed Route
Departure Airport
Arrival Airport
Navaid (VOR, NDB)
Fix

Horizontal Profiles

Position Reports

Time Latitude Longitude Heading Altitude Ground
Speed
23-Oct-18 16:26 47.620422 -117.528554 0 2358ft 0kts
23-Oct-18 16:27 47.620422 -117.528554 0 2358ft 0kts
23-Oct-18 16:28 47.620422 -117.528554 0 2358ft 0kts
23-Oct-18 16:29 47.620422 -117.528554 0 2358ft 0kts
23-Oct-18 16:30 47.620422 -117.528554 0 2358ft 0kts
23-Oct-18 16:31 47.620422 -117.528554 0 2358ft 0kts
23-Oct-18 16:32 47.620422 -117.528554 0 2358ft 0kts
23-Oct-18 16:33 47.620422 -117.528554 0 2358ft 0kts
23-Oct-18 16:34 47.620422 -117.528554 0 2358ft 0kts
23-Oct-18 16:35 47.620422 -117.528554 0 2358ft 0kts
23-Oct-18 16:36 47.620422 -117.528554 0 2358ft 0kts
23-Oct-18 16:37 47.620422 -117.528554 359 2358ft 0kts
23-Oct-18 16:38 47.620422 -117.528554 359 2358ft 0kts
23-Oct-18 16:39 47.620422 -117.528554 359 2358ft 0kts
23-Oct-18 16:40 47.620422 -117.528554 359 2358ft 0kts
23-Oct-18 16:41 47.620819 -117.528560 357 2357ft 0kts
23-Oct-18 16:42 47.622510 -117.527931 47 2354ft 11kts
23-Oct-18 16:43 47.625154 -117.523959 43 2346ft 15kts
23-Oct-18 16:44 47.629698 -117.517100 43 2325ft 16kts
23-Oct-18 16:45 47.630412 -117.517321 316 2322ft 0kts
23-Oct-18 16:46 47.630444 -117.517366 314 2322ft 3kts
23-Oct-18 16:47 47.617154 -117.538195 223 2866ft 127kts
23-Oct-18 16:48 47.594735 -117.566702 219 4621ft 128kts
23-Oct-18 16:49 47.563403 -117.607768 218 7036ft 132kts
23-Oct-18 16:50 47.550985 -117.645191 279 8758ft 143kts
23-Oct-18 16:51 47.558909 -117.703446 274 10840ft 147kts
23-Oct-18 16:52 47.566450 -117.772893 272 12858ft 152kts
23-Oct-18 16:53 47.570647 -117.813268 272 14153ft 151kts
23-Oct-18 16:54 47.570647 -117.813268 272 14153ft 151kts
23-Oct-18 16:55 47.576428 -117.869593 273 15796ft 156kts
23-Oct-18 16:56 47.582831 -117.932601 273 17586ft 158kts
23-Oct-18 16:57 47.589853 -118.001608 274 18701ft 194kts
23-Oct-18 16:58 47.597990 -118.082158 274 20356ft 199kts
23-Oct-18 16:59 47.606154 -118.163778 274 21923ft 201kts
23-Oct-18 17:00 47.608595 -118.188481 274 22290ft 203kts
23-Oct-18 17:01 47.608595 -118.188481 274 22290ft 203kts
23-Oct-18 17:02 47.608999 -118.192591 274 22351ft 203kts
23-Oct-18 17:03 47.617155 -118.274756 274 23495ft 207kts
23-Oct-18 17:04 47.625501 -118.359730 274 24559ft 211kts
23-Oct-18 17:05 47.633905 -118.445931 274 25522ft 213kts
23-Oct-18 17:06 47.642386 -118.533605 275 26420ft 215kts
23-Oct-18 17:07 47.650837 -118.621781 275 27315ft 222kts
23-Oct-18 17:08 47.659407 -118.711781 274 28807ft 221kts
23-Oct-18 17:09 47.668011 -118.803035 274 29946ft 227kts
23-Oct-18 17:10 47.677477 -118.904084 274 29994ft 265kts
23-Oct-18 17:11 47.687751 -119.015145 272 29987ft 285kts
23-Oct-18 17:12 47.698579 -119.133937 273 29982ft 296kts
23-Oct-18 17:13 47.709669 -119.256543 273 29974ft 301kts
23-Oct-18 17:14 47.720675 -119.379956 273 29974ft 303kts
23-Oct-18 17:15 47.731463 -119.504144 272 29974ft 304kts
23-Oct-18 17:16 47.741481 -119.629912 272 29470ft 319kts
23-Oct-18 17:17 47.752141 -119.765529 272 28017ft 342kts
23-Oct-18 17:18 47.763181 -119.907510 272 26471ft 348kts
23-Oct-18 17:19 47.773862 -120.048827 271 24939ft 344kts
23-Oct-18 17:20 47.784121 -120.185855 271 24300ft 323kts
23-Oct-18 17:21 47.793747 -120.316558 272 23862ft 315kts
23-Oct-18 17:22 47.803038 -120.444935 271 23460ft 311kts
23-Oct-18 17:23 47.812146 -120.572781 271 23070ft 310kts
23-Oct-18 17:24 47.821033 -120.699211 270 22609ft 300kts
23-Oct-18 17:25 47.829208 -120.817995 270 21518ft 294kts
23-Oct-18 17:26 47.837812 -120.944611 271 20074ft 317kts
23-Oct-18 17:27 47.846563 -121.075098 270 18657ft 318kts
23-Oct-18 17:28 47.855209 -121.207165 270 17148ft 322kts
23-Oct-18 17:29 47.863553 -121.336415 269 15644ft 314kts
23-Oct-18 17:30 47.871671 -121.464724 270 14254ft 308kts
23-Oct-18 17:31 47.879552 -121.591133 270 12903ft 305kts
23-Oct-18 17:32 47.880835 -121.712587 255 11853ft 278kts
23-Oct-18 17:33 47.867903 -121.826532 255 10329ft 282kts
23-Oct-18 17:34 47.854280 -121.942159 255 8762ft 288kts
23-Oct-18 17:35 47.840290 -122.057123 255 7170ft 279kts
23-Oct-18 17:36 47.826126 -122.168948 255 5577ft 271kts
23-Oct-18 17:37 47.812262 -122.275167 255 4961ft 246kts
23-Oct-18 17:38 47.798999 -122.376990 255 4110ft 267kts
23-Oct-18 17:39 47.773256 -122.460953 185 3966ft 215kts
23-Oct-18 17:40 47.712453 -122.459419 149 3742ft 231kts
23-Oct-18 17:41 47.657399 -122.410257 151 2575ft 207kts
23-Oct-18 17:42 47.615880 -122.374993 150 1650ft 128kts
23-Oct-18 17:43 47.589620 -122.352751 151 1122ft 102kts
23-Oct-18 17:44 47.564295 -122.331347 151 565ft 99kts
23-Oct-18 17:45 47.541391 -122.312105 149 82ft 88kts
23-Oct-18 17:46 47.530330 -122.302637 132 15ft 23kts

Navigation Log

Ident Type
Flight plan parsing failed, navigation log unavailable